Time;durP1;ratioP1;P1;durP2;ratioP2;P2;SDS_P1;SDS_P2;PMS_P1;PMS_P2;Temp;Humidity;BMP_temperature;BMP_pressure;BME280_temperature;BME280_humidity;BME280_pressure;Samples;Min_cycle;Max_cycle;Signal;HPM_P1;HPM_P2
2024/01/30 00:00:56;;;;;;;37.03;29.87;;;;;;;;;;4958316;28;20292;-88
2024/01/30 00:03:27;;;;;;;32.93;26.00;;;;;;;;;;4975359;28;20221;-88
2024/01/30 00:05:57;;;;;;;27.87;22.23;;;;;;;;;;4958225;28;20209;-88
2024/01/30 00:08:27;;;;;;;32.30;28.30;;;;;;;;;;4973911;28;20206;-87
2024/01/30 00:10:56;;;;;;;31.50;27.63;;;;;;;;;;4975219;28;20201;-87
2024/01/30 00:13:24;;;;;;;30.87;23.87;;;;;;;;;;4975337;28;20224;-87
2024/01/30 00:15:53;;;;;;;35.30;27.57;;;;;;;;;;4958717;28;20256;-88
2024/01/30 00:18:22;;;;;;;30.93;22.83;;;;;;;;;;4974553;28;20217;-87
2024/01/30 00:20:50;;;;;;;30.47;25.33;;;;;;;;;;4975068;28;20201;-86
2024/01/30 00:23:20;;;;;;;31.70;25.33;;;;;;;;;;4974494;28;20217;-86
2024/01/30 00:25:49;;;;;;;30.23;25.90;;;;;;;;;;4974237;28;20216;-86
2024/01/30 00:28:17;;;;;;;25.43;20.23;;;;;;;;;;4975345;28;20200;-86
2024/01/30 00:30:46;;;;;;;18.10;12.50;;;;;;;;;;4975168;28;20216;-87
2024/01/30 00:33:16;;;;;;;31.13;25.10;;;;;;;;;;4973413;28;20225;-86
2024/01/30 00:35:45;;;;;;;15.30;9.17;;;;;;;;;;4974810;28;20236;-86
2024/01/30 00:38:13;;;;;;;21.70;16.73;;;;;;;;;;4957330;28;20237;-86
2024/01/30 00:40:43;;;;;;;33.63;27.13;;;;;;;;;;4974524;28;20203;-85
2024/01/30 00:43:12;;;;;;;30.37;20.63;;;;;;;;;;4973480;28;20209;-86
2024/01/30 00:45:40;;;;;;;29.33;25.03;;;;;;;;;;4974804;28;20346;-86
2024/01/30 00:48:09;;;;;;;29.97;23.90;;;;;;;;;;4957331;28;20248;-86
2024/01/30 00:50:37;;;;;;;27.13;19.83;;;;;;;;;;4974721;28;20264;-86
2024/01/30 00:53:06;;;;;;;24.80;17.13;;;;;;;;;;4972616;28;20201;-86
2024/01/30 00:55:34;;;;;;;23.97;19.57;;;;;;;;;;4956835;28;20278;-88
2024/01/30 00:58:04;;;;;;;28.13;21.77;;;;;;;;;;4974555;28;20232;-87
2024/01/30 01:00:35;;;;;;;23.50;17.23;;;;;;;;;;4973971;28;20233;-87
2024/01/30 01:03:04;;;;;;;23.60;19.47;;;;;;;;;;4972992;28;20206;-87
2024/01/30 01:05:33;;;;;;;28.97;20.10;;;;;;;;;;4974156;28;20281;-87
2024/01/30 01:08:04;;;;;;;30.37;24.13;;;;;;;;;;4974380;28;20293;-87
2024/01/30 01:10:32;;;;;;;24.40;17.83;;;;;;;;;;4974468;28;20207;-88
2024/01/30 01:13:01;;;;;;;29.43;21.17;;;;;;;;;;4974558;28;20243;-87
2024/01/30 01:15:30;;;;;;;29.13;22.70;;;;;;;;;;4973110;28;20193;-86
2024/01/30 01:17:59;;;;;;;30.00;23.67;;;;;;;;;;4956923;28;20228;-86
2024/01/30 01:20:28;;;;;;;29.27;24.33;;;;;;;;;;4972985;28;20518;-86
2024/01/30 01:22:56;;;;;;;28.57;22.93;;;;;;;;;;4973002;28;20234;-86
2024/01/30 01:25:26;;;;;;;27.33;21.13;;;;;;;;;;4973427;28;20201;-86
2024/01/30 01:27:54;;;;;;;24.90;22.23;;;;;;;;;;4973323;28;20197;-86
2024/01/30 01:30:23;;;;;;;27.63;21.10;;;;;;;;;;4972873;28;20205;-86
2024/01/30 01:32:56;;;;;;;25.03;19.00;;;;;;;;;;4956697;28;20223;-86
2024/01/30 01:35:26;;;;;;;27.10;18.83;;;;;;;;;;4956322;28;20202;-86
2024/01/30 01:37:55;;;;;;;28.13;22.80;;;;;;;;;;4971575;28;20246;-86
2024/01/30 01:40:24;;;;;;;29.07;24.17;;;;;;;;;;4972382;28;20208;-86
2024/01/30 01:42:53;;;;;;;27.47;23.80;;;;;;;;;;4973738;28;20233;-86
2024/01/30 01:45:23;;;;;;;23.93;21.40;;;;;;;;;;4972218;28;20297;-86
2024/01/30 01:47:53;;;;;;;26.97;20.70;;;;;;;;;;4972108;28;20236;-86
2024/01/30 01:50:22;;;;;;;28.13;20.00;;;;;;;;;;4973733;28;20205;-86
2024/01/30 01:52:51;;;;;;;28.43;25.37;;;;;;;;;;4972629;28;20204;-86
2024/01/30 01:55:24;;;;;;;19.43;13.67;;;;;;;;;;4972618;28;20214;-86
2024/01/30 01:57:53;;;;;;;29.50;18.73;;;;;;;;;;4956266;28;20271;-86
2024/01/30 02:00:22;;;;;;;25.97;16.87;;;;;;;;;;4956382;28;20221;-86
2024/01/30 02:02:54;;;;;;;22.27;15.80;;;;;;;;;;4956843;28;20206;-86
2024/01/30 02:05:23;;;;;;;25.10;22.33;;;;;;;;;;4973564;28;20218;-86
2024/01/30 02:07:52;;;;;;;16.87;13.77;;;;;;;;;;4972677;28;20205;-86
2024/01/30 02:10:21;;;;;;;25.50;20.27;;;;;;;;;;4971699;28;20253;-86
2024/01/30 02:12:50;;;;;;;22.77;19.30;;;;;;;;;;4972716;28;20563;-86
2024/01/30 02:15:36;;;;;;;23.30;18.83;;;;;;;;;;4972151;28;20236;-86
2024/01/30 02:18:08;;;;;;;30.10;23.33;;;;;;;;;;4971461;28;20232;-86
2024/01/30 02:20:37;;;;;;;25.23;20.27;;;;;;;;;;4971867;28;20197;-86
2024/01/30 02:23:09;;;;;;;26.07;22.40;;;;;;;;;;4973009;28;20232;-86
2024/01/30 02:25:43;;;;;;;24.70;20.13;;;;;;;;;;4956517;28;20212;-86
2024/01/30 02:28:16;;;;;;;18.60;15.80;;;;;;;;;;4972398;28;20193;-86
2024/01/30 02:30:45;;;;;;;24.00;21.00;;;;;;;;;;4955420;28;20205;-86
2024/01/30 02:33:14;;;;;;;20.43;17.60;;;;;;;;;;4973096;28;20235;-87
2024/01/30 02:35:42;;;;;;;7.13;6.57;;;;;;;;;;4973012;28;20199;-86
2024/01/30 02:38:12;;;;;;;17.77;11.50;;;;;;;;;;4954800;28;20246;-86
2024/01/30 02:40:41;;;;;;;22.37;16.53;;;;;;;;;;4971348;28;20231;-86
2024/01/30 02:43:09;;;;;;;19.10;12.70;;;;;;;;;;4955896;28;20206;-86
2024/01/30 02:45:38;;;;;;;20.63;15.00;;;;;;;;;;4955890;28;20206;-86
2024/01/30 02:48:07;;;;;;;19.73;16.63;;;;;;;;;;4972972;28;20286;-86
2024/01/30 02:50:35;;;;;;;27.07;21.33;;;;;;;;;;4972178;28;20195;-85
2024/01/30 02:53:04;;;;;;;27.87;21.33;;;;;;;;;;4972913;28;20213;-85
2024/01/30 02:55:35;;;;;;;12.40;11.10;;;;;;;;;;4972935;28;20208;-86
2024/01/30 02:58:03;;;;;;;27.03;23.37;;;;;;;;;;4971493;28;20257;-88
2024/01/30 03:00:32;;;;;;;25.23;21.17;;;;;;;;;;4971053;28;20221;-87
2024/01/30 03:03:00;;;;;;;22.57;19.37;;;;;;;;;;4972289;28;20217;-88
2024/01/30 03:05:28;;;;;;;20.70;16.93;;;;;;;;;;4973050;28;20226;-88
2024/01/30 03:07:57;;;;;;;25.40;22.73;;;;;;;;;;4971678;28;20236;-88
2024/01/30 03:10:25;;;;;;;26.27;22.93;;;;;;;;;;4972356;28;20205;-88
2024/01/30 03:12:55;;;;;;;21.80;19.27;;;;;;;;;;4972307;28;20197;-87
2024/01/30 03:15:24;;;;;;;27.50;24.53;;;;;;;;;;4971919;28;20202;-88
2024/01/30 03:17:52;;;;;;;25.77;21.93;;;;;;;;;;4971725;28;20201;-88
2024/01/30 03:20:21;;;;;;;24.30;21.70;;;;;;;;;;4955237;28;20230;-89
2024/01/30 03:22:49;;;;;;;26.87;19.30;;;;;;;;;;4955201;28;20229;-88
2024/01/30 03:25:18;;;;;;;14.60;12.60;;;;;;;;;;4975219;28;20205;-88
2024/01/30 03:27:49;;;;;;;24.67;22.07;;;;;;;;;;4976654;28;20233;-88
2024/01/30 03:30:19;;;;;;;22.80;18.10;;;;;;;;;;4975647;28;20194;-88
2024/01/30 03:32:47;;;;;;;18.73;16.60;;;;;;;;;;4959106;28;20225;-88
2024/01/30 03:35:16;;;;;;;16.60;14.33;;;;;;;;;;4976554;28;20229;-88
2024/01/30 03:37:44;;;;;;;20.53;11.57;;;;;;;;;;4975028;28;20247;-87
2024/01/30 03:40:13;;;;;;;23.70;18.23;;;;;;;;;;4976543;28;20225;-88
2024/01/30 03:42:42;;;;;;;15.87;13.20;;;;;;;;;;4975796;28;20219;-87
2024/01/30 03:45:10;;;;;;;17.67;14.87;;;;;;;;;;4976051;28;20280;-87
2024/01/30 03:47:40;;;;;;;18.77;13.70;;;;;;;;;;4975041;28;20212;-88
2024/01/30 03:50:09;;;;;;;21.10;18.60;;;;;;;;;;4958919;28;20206;-88
2024/01/30 03:52:38;;;;;;;21.60;19.47;;;;;;;;;;4974584;28;20203;-88
2024/01/30 03:55:07;;;;;;;23.40;19.50;;;;;;;;;;4974565;28;20269;-88
2024/01/30 03:57:35;;;;;;;21.73;18.40;;;;;;;;;;4974613;28;20214;-88
2024/01/30 04:00:05;;;;;;;24.07;20.23;;;;;;;;;;4974707;28;20218;-88
2024/01/30 04:02:34;;;;;;;26.10;19.27;;;;;;;;;;4975588;28;20214;-87
2024/01/30 04:05:04;;;;;;;13.53;12.17;;;;;;;;;;4957885;28;20266;-88
2024/01/30 04:07:32;;;;;;;20.03;17.37;;;;;;;;;;4974652;28;20199;-87
2024/01/30 04:10:01;;;;;;;15.70;14.17;;;;;;;;;;4975798;28;20198;-88
2024/01/30 04:12:29;;;;;;;23.83;19.60;;;;;;;;;;4975533;28;20209;-88
2024/01/30 04:14:58;;;;;;;20.40;18.03;;;;;;;;;;4974272;28;20200;-87
2024/01/30 04:17:29;;;;;;;22.17;19.00;;;;;;;;;;4974119;28;20190;-87
2024/01/30 04:19:58;;;;;;;15.83;14.00;;;;;;;;;;4974481;28;20301;-87
2024/01/30 04:22:28;;;;;;;15.77;13.60;;;;;;;;;;4957890;28;20325;-88
2024/01/30 04:24:56;;;;;;;20.33;18.20;;;;;;;;;;4974169;28;20217;-88
2024/01/30 04:27:25;;;;;;;23.17;20.67;;;;;;;;;;4975243;28;20208;-87
2024/01/30 04:29:53;;;;;;;25.30;20.80;;;;;;;;;;4974602;28;20201;-87
2024/01/30 04:32:25;;;;;;;24.60;19.07;;;;;;;;;;4974839;28;20312;-88
2024/01/30 04:34:53;;;;;;;21.70;18.83;;;;;;;;;;4974164;28;20225;-88
2024/01/30 04:37:22;;;;;;;16.00;12.23;;;;;;;;;;4973627;28;20241;-88
2024/01/30 04:39:52;;;;;;;23.83;20.07;;;;;;;;;;4974250;28;20245;-88
2024/01/30 04:42:20;;;;;;;21.17;19.10;;;;;;;;;;4958031;28;20206;-87
2024/01/30 04:44:51;;;;;;;22.67;20.23;;;;;;;;;;4973781;28;20207;-87
2024/01/30 04:47:19;;;;;;;22.90;18.53;;;;;;;;;;4972825;28;20261;-88
2024/01/30 04:49:48;;;;;;;21.80;16.20;;;;;;;;;;4973749;28;20197;-86
2024/01/30 04:52:20;;;;;;;15.57;13.30;;;;;;;;;;4974971;28;20202;-88
2024/01/30 04:54:49;;;;;;;22.57;17.97;;;;;;;;;;4973408;28;20200;-88
2024/01/30 04:57:19;;;;;;;19.07;17.03;;;;;;;;;;4973629;28;20226;-88
2024/01/30 04:59:47;;;;;;;20.23;18.27;;;;;;;;;;4957152;28;20213;-88
2024/01/30 05:02:16;;;;;;;21.63;18.67;;;;;;;;;;4957971;28;20312;-88
2024/01/30 05:04:47;;;;;;;18.87;15.10;;;;;;;;;;4975497;28;20195;-88
2024/01/30 05:07:18;;;;;;;12.53;8.43;;;;;;;;;;4973316;28;20439;-88
2024/01/30 05:09:49;;;;;;;10.80;7.27;;;;;;;;;;4974189;28;20248;-88
2024/01/30 05:12:19;;;;;;;18.20;16.03;;;;;;;;;;4974266;28;20218;-88
2024/01/30 05:14:48;;;;;;;19.27;16.27;;;;;;;;;;4973152;28;20225;-88
2024/01/30 05:17:16;;;;;;;18.27;12.53;;;;;;;;;;4972062;28;20231;-86
2024/01/30 05:19:45;;;;;;;17.43;14.53;;;;;;;;;;4972799;28;20301;-88
2024/01/30 05:22:15;;;;;;;18.03;13.97;;;;;;;;;;4973268;28;20243;-88
2024/01/30 05:24:44;;;;;;;13.60;10.67;;;;;;;;;;4974513;28;20199;-88
2024/01/30 05:27:13;;;;;;;15.17;12.27;;;;;;;;;;4973714;28;20202;-87
2024/01/30 05:29:43;;;;;;;5.27;4.53;;;;;;;;;;4973365;28;20194;-87
2024/01/30 05:32:11;;;;;;;14.00;11.47;;;;;;;;;;4973392;28;20248;-87
2024/01/30 05:34:41;;;;;;;13.73;11.20;;;;;;;;;;4956741;28;20384;-85
2024/01/30 05:37:14;;;;;;;25.17;11.27;;;;;;;;;;4972897;28;20235;-86
2024/01/30 05:39:43;;;;;;;16.00;11.67;;;;;;;;;;4973069;28;20483;-86
2024/01/30 05:42:11;;;;;;;15.80;12.27;;;;;;;;;;4972112;28;20222;-85
2024/01/30 05:44:40;;;;;;;17.83;14.60;;;;;;;;;;4973689;28;20233;-86
2024/01/30 05:47:10;;;;;;;16.40;12.80;;;;;;;;;;4973389;28;20206;-85
2024/01/30 05:49:38;;;;;;;16.80;15.10;;;;;;;;;;4972079;28;20226;-85
2024/01/30 05:52:07;;;;;;;20.83;15.13;;;;;;;;;;4956808;28;20289;-85
2024/01/30 05:54:36;;;;;;;19.63;16.23;;;;;;;;;;4973933;28;20243;-85
2024/01/30 05:57:04;;;;;;;16.93;14.63;;;;;;;;;;4973775;28;20203;-85
2024/01/30 05:59:33;;;;;;;20.13;14.43;;;;;;;;;;4972930;28;20299;-85
2024/01/30 06:02:04;;;;;;;22.03;16.93;;;;;;;;;;4972158;28;20218;-85
2024/01/30 06:04:37;;;;;;;18.97;15.57;;;;;;;;;;4973620;28;20201;-85
2024/01/30 06:07:06;;;;;;;16.90;15.10;;;;;;;;;;4973473;28;20200;-85
2024/01/30 06:09:35;;;;;;;17.00;15.10;;;;;;;;;;4973083;28;20295;-85
2024/01/30 06:12:04;;;;;;;17.57;14.60;;;;;;;;;;4971953;28;20293;-85
2024/01/30 06:14:33;;;;;;;15.67;13.57;;;;;;;;;;4956399;28;20203;-85
2024/01/30 06:17:02;;;;;;;16.97;12.77;;;;;;;;;;4973762;28;20224;-85
2024/01/30 06:19:31;;;;;;;19.73;16.30;;;;;;;;;;4956292;28;20374;-84
2024/01/30 06:22:02;;;;;;;22.07;15.00;;;;;;;;;;4973331;28;20265;-85
2024/01/30 06:24:31;;;;;;;16.30;14.30;;;;;;;;;;4956294;28;20202;-85
2024/01/30 06:26:59;;;;;;;18.73;16.90;;;;;;;;;;4955913;28;20202;-86
2024/01/30 06:29:28;;;;;;;21.03;18.30;;;;;;;;;;4972709;28;20262;-86
2024/01/30 06:31:57;;;;;;;15.23;11.30;;;;;;;;;;4971487;28;20223;-86
2024/01/30 06:34:27;;;;;;;17.50;13.00;;;;;;;;;;4971967;28;20194;-86
2024/01/30 06:36:56;;;;;;;18.53;12.83;;;;;;;;;;4956338;28;20218;-85
2024/01/30 06:39:26;;;;;;;18.37;14.53;;;;;;;;;;4973502;28;20303;-86
2024/01/30 06:41:54;;;;;;;18.83;16.80;;;;;;;;;;4973091;28;20277;-86
2024/01/30 06:44:22;;;;;;;16.83;11.43;;;;;;;;;;4971823;28;20203;-85
2024/01/30 06:46:51;;;;;;;15.77;13.80;;;;;;;;;;4973297;28;20203;-86
2024/01/30 06:49:21;;;;;;;15.97;13.83;;;;;;;;;;4956047;28;20209;-87
2024/01/30 06:51:50;;;;;;;15.40;13.77;;;;;;;;;;4955897;28;20195;-87
2024/01/30 06:54:18;;;;;;;15.37;11.83;;;;;;;;;;4971586;28;20194;-87
2024/01/30 06:56:48;;;;;;;14.03;12.00;;;;;;;;;;4974070;28;20197;-87
2024/01/30 06:59:20;;;;;;;14.67;13.20;;;;;;;;;;4974739;28;20204;-87
2024/01/30 07:01:49;;;;;;;13.20;10.47;;;;;;;;;;4959814;28;20298;-87
2024/01/30 07:04:18;;;;;;;15.80;14.03;;;;;;;;;;4975168;28;20205;-87
2024/01/30 07:06:46;;;;;;;20.77;15.50;;;;;;;;;;4976017;28;20218;-87
2024/01/30 07:09:15;;;;;;;17.27;13.47;;;;;;;;;;4976632;28;20203;-88
2024/01/30 07:11:44;;;;;;;14.13;10.80;;;;;;;;;;4976694;28;20255;-87
2024/01/30 07:14:14;;;;;;;16.80;13.53;;;;;;;;;;4974384;28;20209;-87
2024/01/30 07:16:42;;;;;;;14.60;11.80;;;;;;;;;;4976388;28;20202;-88
2024/01/30 07:19:11;;;;;;;15.97;14.23;;;;;;;;;;4976415;28;20201;-88
2024/01/30 07:21:40;;;;;;;14.00;12.57;;;;;;;;;;4977618;28;20231;-88
2024/01/30 07:24:09;;;;;;;14.90;12.30;;;;;;;;;;4974882;28;20195;-87
2024/01/30 07:26:37;;;;;;;15.37;12.30;;;;;;;;;;4976623;28;20265;-88
2024/01/30 07:29:06;;;;;;;16.67;12.23;;;;;;;;;;4976510;28;20298;-88
2024/01/30 07:31:36;;;;;;;16.60;13.63;;;;;;;;;;4976431;28;20294;-88
2024/01/30 07:34:05;;;;;;;17.37;15.60;;;;;;;;;;4975382;28;20282;-88
2024/01/30 07:36:33;;;;;;;16.50;11.90;;;;;;;;;;4976641;28;20199;-88
2024/01/30 07:39:02;;;;;;;15.07;11.03;;;;;;;;;;4976356;28;20244;-89
2024/01/30 07:41:33;;;;;;;8.73;6.57;;;;;;;;;;4977601;28;20215;-89
2024/01/30 07:44:03;;;;;;;4.13;3.73;;;;;;;;;;4960484;28;20203;-89
2024/01/30 07:46:32;;;;;;;5.37;4.77;;;;;;;;;;4961239;28;20196;-89
2024/01/30 07:49:06;;;;;;;7.53;6.63;;;;;;;;;;4961337;28;20223;-88
2024/01/30 07:51:36;;;;;;;15.63;11.53;;;;;;;;;;4960808;28;20201;-87
2024/01/30 07:54:04;;;;;;;14.80;10.20;;;;;;;;;;4978019;28;20239;-87
2024/01/30 07:56:33;;;;;;;8.20;7.30;;;;;;;;;;4976339;28;20287;-87
2024/01/30 07:59:04;;;;;;;15.83;11.43;;;;;;;;;;4960475;28;20209;-87
2024/01/30 08:01:34;;;;;;;14.00;9.23;;;;;;;;;;4960435;28;20264;-89
2024/01/30 08:04:05;;;;;;;20.10;10.77;;;;;;;;;;4977472;28;20204;-88
2024/01/30 08:06:35;;;;;;;12.33;8.77;;;;;;;;;;4976477;28;20224;-88
2024/01/30 08:09:05;;;;;;;6.30;5.20;;;;;;;;;;4959581;28;20240;-86
2024/01/30 08:11:35;;;;;;;13.03;6.17;;;;;;;;;;4959127;28;20232;-85
2024/01/30 08:14:04;;;;;;;9.80;6.77;;;;;;;;;;4959043;28;20201;-86
2024/01/30 08:16:33;;;;;;;9.57;6.33;;;;;;;;;;4958388;28;20260;-86
2024/01/30 08:19:04;;;;;;;16.43;5.17;;;;;;;;;;4958045;28;20196;-87
2024/01/30 08:21:37;;;;;;;8.70;5.80;;;;;;;;;;4976146;28;20229;-86
2024/01/30 08:24:11;;;;;;;10.13;8.03;;;;;;;;;;4959415;28;20205;-87
2024/01/30 08:26:40;;;;;;;6.50;4.70;;;;;;;;;;4959317;28;20456;-87
2024/01/30 08:29:08;;;;;;;13.77;10.50;;;;;;;;;;4958549;28;20283;-87
2024/01/30 08:31:37;;;;;;;12.47;7.73;;;;;;;;;;4975216;28;20236;-86
2024/01/30 08:34:06;;;;;;;15.53;7.00;;;;;;;;;;4958553;28;20198;-87
2024/01/30 08:36:37;;;;;;;6.10;5.03;;;;;;;;;;4976169;28;20199;-87
2024/01/30 08:39:06;;;;;;;6.83;6.23;;;;;;;;;;4954975;29;20241;-87
2024/01/30 08:41:39;;;;;;;8.57;4.70;;;;;;;;;;4956015;29;20233;-86
2024/01/30 08:44:10;;;;;;;10.90;8.40;;;;;;;;;;4956883;29;20208;-86
2024/01/30 08:46:39;;;;;;;6.93;4.97;;;;;;;;;;4955237;29;20237;-87
2024/01/30 08:49:08;;;;;;;6.73;5.77;;;;;;;;;;4954482;29;20269;-86
2024/01/30 08:51:37;;;;;;;10.13;6.47;;;;;;;;;;4955075;29;20217;-86
2024/01/30 08:54:05;;;;;;;4.27;3.87;;;;;;;;;;4954966;29;20209;-84
2024/01/30 08:56:35;;;;;;;12.03;7.00;;;;;;;;;;4971131;28;20221;-86
2024/01/30 08:59:05;;;;;;;5.80;4.07;;;;;;;;;;4970387;28;20197;-87
2024/01/30 09:01:36;;;;;;;15.47;4.33;;;;;;;;;;4954854;29;20205;-87
2024/01/30 09:04:06;;;;;;;7.40;4.33;;;;;;;;;;4955486;29;20207;-88
2024/01/30 09:06:35;;;;;;;12.43;4.90;;;;;;;;;;4954999;29;20206;-87
2024/01/30 09:09:04;;;;;;;9.67;5.03;;;;;;;;;;4955713;29;20251;-85
2024/01/30 09:11:33;;;;;;;7.00;4.63;;;;;;;;;;4953968;29;20256;-85
2024/01/30 09:14:04;;;;;;;15.27;5.00;;;;;;;;;;4954956;29;20198;-86
2024/01/30 09:16:35;;;;;;;7.60;3.20;;;;;;;;;;4955902;29;20215;-86
2024/01/30 09:19:03;;;;;;;8.93;4.10;;;;;;;;;;4955982;29;20302;-86
2024/01/30 09:21:32;;;;;;;7.07;3.30;;;;;;;;;;4954680;28;20201;-86
2024/01/30 09:24:03;;;;;;;5.73;3.10;;;;;;;;;;4954567;29;20220;-87
2024/01/30 09:26:32;;;;;;;7.43;2.77;;;;;;;;;;4953772;29;20205;-87
2024/01/30 09:29:01;;;;;;;3.43;2.70;;;;;;;;;;4954234;29;20448;-86
2024/01/30 09:31:30;;;;;;;11.67;3.23;;;;;;;;;;4953554;29;20291;-87
2024/01/30 09:34:02;;;;;;;6.80;2.70;;;;;;;;;;4953831;29;20206;-86
2024/01/30 09:36:30;;;;;;;5.60;3.67;;;;;;;;;;4953394;29;20209;-87
2024/01/30 09:39:00;;;;;;;6.80;2.73;;;;;;;;;;4968075;28;20267;-87
2024/01/30 09:41:29;;;;;;;4.20;2.33;;;;;;;;;;4955611;28;20242;-87
2024/01/30 09:43:59;;;;;;;9.97;2.80;;;;;;;;;;4955987;28;20227;-87
2024/01/30 09:46:28;;;;;;;9.57;4.00;;;;;;;;;;4956155;28;20208;-87
2024/01/30 09:48:57;;;;;;;2.93;1.70;;;;;;;;;;4956278;28;20213;-87
2024/01/30 09:51:28;;;;;;;5.40;3.17;;;;;;;;;;4955783;28;20215;-87
2024/01/30 09:53:59;;;;;;;6.80;1.90;;;;;;;;;;4956041;28;20211;-87
2024/01/30 09:56:28;;;;;;;4.93;2.30;;;;;;;;;;4955773;28;20208;-87
2024/01/30 09:58:59;;;;;;;4.27;2.50;;;;;;;;;;4955824;28;20278;-87
2024/01/30 10:01:30;;;;;;;4.77;2.20;;;;;;;;;;4955700;28;20201;-87
2024/01/30 10:03:59;;;;;;;11.17;3.47;;;;;;;;;;4955417;28;20254;-87
2024/01/30 10:06:31;;;;;;;9.40;2.93;;;;;;;;;;4955292;28;20232;-87
2024/01/30 10:09:00;;;;;;;4.87;2.27;;;;;;;;;;4955747;28;20298;-88
2024/01/30 10:11:28;;;;;;;3.83;2.60;;;;;;;;;;4972615;28;20250;-87
2024/01/30 10:13:57;;;;;;;8.23;2.53;;;;;;;;;;4955364;28;20201;-86
2024/01/30 10:16:26;;;;;;;7.90;2.63;;;;;;;;;;4955756;28;20199;-87
2024/01/30 10:18:55;;;;;;;5.67;2.77;;;;;;;;;;4955112;28;20210;-87
2024/01/30 10:21:24;;;;;;;10.97;2.93;;;;;;;;;;4955672;28;20208;-87
2024/01/30 10:23:54;;;;;;;11.53;4.50;;;;;;;;;;4954891;28;20236;-87
2024/01/30 10:26:23;;;;;;;7.77;2.57;;;;;;;;;;4972053;28;20231;-87
2024/01/30 10:28:52;;;;;;;3.13;2.50;;;;;;;;;;4955756;28;20202;-87
2024/01/30 10:31:21;;;;;;;8.93;2.80;;;;;;;;;;4955116;28;20214;-87
2024/01/30 10:33:49;;;;;;;2.60;1.73;;;;;;;;;;4957007;28;20199;-86
2024/01/30 10:36:19;;;;;;;7.20;3.27;;;;;;;;;;4958300;28;20269;-87
2024/01/30 10:38:51;;;;;;;7.50;3.87;;;;;;;;;;4920115;28;1135041;-87
2024/01/30 10:41:24;;;;;;;5.70;2.50;;;;;;;;;;4960187;28;20255;-87
2024/01/30 10:43:59;;;;;;;8.43;2.70;;;;;;;;;;4976774;28;20214;-87
2024/01/30 10:46:31;;;;;;;2.93;1.70;;;;;;;;;;4959593;28;20203;-87
2024/01/30 10:49:02;;;;;;;1.30;1.20;;;;;;;;;;4959657;28;20207;-85
2024/01/30 10:51:32;;;;;;;2.50;2.07;;;;;;;;;;4960161;28;20228;-86
2024/01/30 10:54:02;;;;;;;11.23;3.60;;;;;;;;;;4959893;28;20291;-87
2024/01/30 10:56:34;;;;;;;10.10;2.43;;;;;;;;;;4959057;28;20334;-87
2024/01/30 10:59:03;;;;;;;13.80;3.77;;;;;;;;;;4959421;28;20203;-87
2024/01/30 11:01:32;;;;;;;3.10;1.37;;;;;;;;;;4959804;28;20229;-87
2024/01/30 11:04:01;;;;;;;10.53;2.67;;;;;;;;;;4959338;28;20219;-87
2024/01/30 11:06:30;;;;;;;11.33;1.93;;;;;;;;;;4975665;28;20207;-87
2024/01/30 11:09:09;;;;;;;5.87;3.03;;;;;;;;;;4959628;28;20200;-86
2024/01/30 11:11:51;;;;;;;6.93;2.83;;;;;;;;;;4959827;28;20216;-86
2024/01/30 11:14:25;;;;;;;7.03;2.43;;;;;;;;;;4959384;28;20204;-86
2024/01/30 11:16:54;;;;;;;9.33;3.27;;;;;;;;;;4958794;28;20257;-87
2024/01/30 11:19:26;;;;;;;12.07;3.97;;;;;;;;;;4959516;28;20235;-86
2024/01/30 11:21:56;;;;;;;4.57;1.73;;;;;;;;;;4959118;28;20204;-88
2024/01/30 11:24:28;;;;;;;9.93;3.47;;;;;;;;;;4959253;28;20230;-88
2024/01/30 11:27:01;;;;;;;3.17;2.07;;;;;;;;;;4975678;28;20210;-88
2024/01/30 11:29:30;;;;;;;7.67;2.57;;;;;;;;;;4958525;28;20226;-86
2024/01/30 11:32:02;;;;;;;7.23;2.63;;;;;;;;;;4958479;28;20243;-87
2024/01/30 11:34:34;;;;;;;5.57;2.03;;;;;;;;;;4958957;28;20207;-87
2024/01/30 11:37:13;;;;;;;4.13;2.27;;;;;;;;;;4976069;28;20199;-86
2024/01/30 11:39:50;;;;;;;6.20;3.17;;;;;;;;;;4958780;28;20235;-87
2024/01/30 11:42:31;;;;;;;11.77;2.90;;;;;;;;;;4974939;28;20215;-86
2024/01/30 11:45:11;;;;;;;8.40;3.53;;;;;;;;;;4958360;28;20220;-87
2024/01/30 11:51:27;;;;;;;16.13;2.50;;;;;;;;;;4957827;28;20211;-86
2024/01/30 11:54:38;;;;;;;;;;;;;;;;;;;;;
2024/01/30 11:57:44;;;;;;;12.40;3.03;;;;;;;;;;4917051;28;20216;-87
2024/01/30 12:00:40;;;;;;;2.93;1.63;;;;;;;;;;4957506;28;20206;-88
2024/01/30 12:03:32;;;;;;;8.93;2.30;;;;;;;;;;4958096;28;20207;-86
2024/01/30 12:06:29;;;;;;;15.30;3.57;;;;;;;;;;4918599;29;20267;-86
2024/01/30 12:08:59;;;;;;;8.73;3.20;;;;;;;;;;4918310;29;20222;-87
2024/01/30 12:11:29;;;;;;;9.57;2.40;;;;;;;;;;4946968;28;20207;-87
2024/01/30 12:13:58;;;;;;;9.83;3.40;;;;;;;;;;4958604;28;20211;-87
2024/01/30 12:16:51;;;;;;;8.90;2.93;;;;;;;;;;4958216;28;20207;-88
2024/01/30 12:19:31;;;;;;;5.80;2.77;;;;;;;;;;4958337;28;20291;-88
2024/01/30 12:22:00;;;;;;;3.13;2.20;;;;;;;;;;4957624;28;20210;-88
2024/01/30 12:24:30;;;;;;;10.23;2.77;;;;;;;;;;4975192;28;20219;-87
2024/01/30 12:27:00;;;;;;;13.03;3.60;;;;;;;;;;4957865;28;20262;-86
2024/01/30 12:29:33;;;;;;;9.83;2.53;;;;;;;;;;4957378;28;20208;-87
2024/01/30 12:32:07;;;;;;;9.37;2.97;;;;;;;;;;4974509;28;20242;-88
2024/01/30 12:34:43;;;;;;;5.63;2.17;;;;;;;;;;4958127;28;20205;-87
2024/01/30 12:37:29;;;;;;;15.37;4.23;;;;;;;;;;4957836;28;20225;-87
2024/01/30 12:40:05;;;;;;;6.70;2.57;;;;;;;;;;4957798;28;20471;-88
2024/01/30 12:42:38;;;;;;;3.57;1.53;;;;;;;;;;4974258;28;20208;-87
2024/01/30 12:45:10;;;;;;;11.47;2.57;;;;;;;;;;4957272;28;20228;-88
2024/01/30 12:47:43;;;;;;;9.10;2.90;;;;;;;;;;4957370;28;20212;-87
2024/01/30 12:50:15;;;;;;;2.07;1.60;;;;;;;;;;4957752;28;20211;-87
2024/01/30 12:52:44;;;;;;;4.93;2.07;;;;;;;;;;4956667;28;20214;-88
2024/01/30 12:55:20;;;;;;;5.77;2.57;;;;;;;;;;4974562;28;20212;-87
2024/01/30 12:57:49;;;;;;;5.40;2.80;;;;;;;;;;4957592;28;20207;-87
2024/01/30 13:00:18;;;;;;;9.50;2.57;;;;;;;;;;4957881;28;20278;-88
2024/01/30 13:02:47;;;;;;;3.57;2.00;;;;;;;;;;4957235;28;20210;-86
2024/01/30 13:05:17;;;;;;;4.33;2.63;;;;;;;;;;4974446;28;20270;-87
2024/01/30 13:07:46;;;;;;;2.00;1.80;;;;;;;;;;4957765;28;20198;-86
2024/01/30 13:10:15;;;;;;;3.27;1.57;;;;;;;;;;4957705;28;20238;-88
2024/01/30 13:12:51;;;;;;;3.47;1.90;;;;;;;;;;4956743;28;20208;-88
2024/01/30 13:15:31;;;;;;;2.07;1.87;;;;;;;;;;4956688;28;20297;-87
2024/01/30 13:18:07;;;;;;;5.80;2.30;;;;;;;;;;4957204;28;20211;-87
2024/01/30 13:20:58;;;;;;;5.37;2.07;;;;;;;;;;4956925;28;20203;-86
2024/01/30 13:23:42;;;;;;;6.47;2.03;;;;;;;;;;4956298;28;20255;-87
2024/01/30 13:26:39;;;;;;;4.13;2.47;;;;;;;;;;4956681;28;20262;-87
2024/01/30 13:29:21;;;;;;;3.20;2.27;;;;;;;;;;4973691;28;20220;-87
2024/01/30 13:32:10;;;;;;;9.90;3.47;;;;;;;;;;4953841;28;20260;-87
2024/01/30 13:37:52;;;;;;;7.13;3.60;;;;;;;;;;4933476;28;20244;-87
2024/01/30 13:40:26;;;;;;;3.10;2.03;;;;;;;;;;4957045;28;20204;-85
2024/01/30 13:43:11;;;;;;;6.60;3.57;;;;;;;;;;4956359;28;20207;-87
2024/01/30 13:45:52;;;;;;;5.50;3.80;;;;;;;;;;4972992;28;20216;-88
2024/01/30 13:48:39;;;;;;;11.47;4.23;;;;;;;;;;4954577;28;20206;-87
2024/01/30 13:51:25;;;;;;;1.73;1.63;;;;;;;;;;4956373;28;20212;-87
2024/01/30 13:54:17;;;;;;;5.17;2.90;;;;;;;;;;4972822;28;20199;-87
2024/01/30 13:56:53;;;;;;;10.20;5.87;;;;;;;;;;4955840;28;20305;-87
2024/01/30 13:59:46;;;;;;;9.93;4.03;;;;;;;;;;4973334;28;20199;-86
2024/01/30 14:05:21;;;;;;;4.93;3.47;;;;;;;;;;4916847;28;20238;-86
2024/01/30 14:11:39;;;;;;;5.33;3.80;;;;;;;;;;4916296;29;20254;-87
2024/01/30 14:14:35;;;;;;;8.20;5.10;;;;;;;;;;4932018;29;20209;-87
2024/01/30 14:17:22;;;;;;;11.07;6.20;;;;;;;;;;4875219;29;20218;-87
2024/01/30 14:26:34;;;;;;;4.37;3.10;;;;;;;;;;4873867;29;20239;-87
2024/01/30 14:30:01;;;;;;;13.47;3.77;;;;;;;;;;4897825;29;20292;-87
2024/01/30 14:38:52;;;;;;;5.40;4.13;;;;;;;;;;4911787;29;20293;-87
2024/01/30 14:41:28;;;;;;;18.00;9.03;;;;;;;;;;4922152;29;20219;-87
2024/01/30 14:44:22;;;;;;;8.47;5.27;;;;;;;;;;4953431;29;20333;-87
2024/01/30 14:47:29;;;;;;;6.37;3.27;;;;;;;;;;4949487;29;20316;-87
2024/01/30 14:53:24;;;;;;;13.13;4.53;;;;;;;;;;4896681;29;20204;-87
2024/01/30 14:56:24;;;;;;;;;;;;;;;;;;;;;
2024/01/30 14:59:56;;;;;;;9.33;5.47;;;;;;;;;;4949200;29;20254;-87
2024/01/30 15:02:57;;;;;;;;;;;;;;;;;;;;;
2024/01/30 15:08:47;;;;;;;7.80;3.27;;;;;;;;;;4856199;29;20211;-86
2024/01/30 15:11:36;;;;;;;2.50;1.93;;;;;;;;;;4840654;29;20210;-87
2024/01/30 15:17:39;;;;;;;1.93;1.63;;;;;;;;;;4950314;29;20229;-87
2024/01/30 15:20:23;;;;;;;12.77;3.87;;;;;;;;;;4955168;28;20291;-87
2024/01/30 15:23:30;;;;;;;3.43;2.10;;;;;;;;;;4956751;29;20225;-87
2024/01/30 15:32:10;;;;;;;22.23;3.87;;;;;;;;;;4954988;29;20224;-87
2024/01/30 15:34:42;;;;;;;10.10;3.20;;;;;;;;;;4955624;29;20203;-87
2024/01/30 15:37:13;;;;;;;18.53;5.37;;;;;;;;;;4955529;29;20199;-87
2024/01/30 15:39:42;;;;;;;16.63;4.97;;;;;;;;;;4954704;29;20270;-87
2024/01/30 15:42:12;;;;;;;11.63;2.17;;;;;;;;;;4954809;29;20206;-88